createdAt,value
2022-08-28T00:03:19.765Z,22.40
2022-08-28T00:08:24.227Z,22.31
2022-08-28T00:13:28.183Z,22.32
2022-08-28T00:18:32.377Z,22.30
2022-08-28T00:23:43.045Z,22.24
2022-08-28T00:28:46.280Z,22.19
2022-08-28T00:33:49.249Z,22.16
2022-08-28T00:38:53.655Z,22.13
2022-08-28T00:44:07.190Z,22.10
2022-08-28T00:49:10.812Z,22.06
2022-08-28T00:54:15.127Z,22.05
2022-08-28T00:59:20.093Z,21.98
2022-08-28T01:04:24.199Z,21.93
2022-08-28T01:09:30.723Z,21.92
2022-08-28T01:14:34.610Z,21.84
2022-08-28T01:19:39.850Z,21.83
2022-08-28T01:24:45.788Z,21.75
2022-08-28T01:29:48.791Z,21.73
2022-08-28T01:34:51.767Z,21.67
2022-08-28T01:39:56.502Z,21.73
2022-08-28T01:44:59.497Z,21.65
2022-08-28T01:50:02.568Z,21.63
2022-08-28T01:55:07.621Z,21.60
2022-08-28T02:00:11.448Z,21.50
2022-08-28T02:05:14.385Z,21.52
2022-08-28T02:10:19.102Z,21.48
2022-08-28T02:15:23.539Z,21.42
2022-08-28T02:20:27.126Z,21.28
2022-08-28T02:25:31.593Z,21.31
2022-08-28T02:30:34.660Z,21.33
2022-08-28T02:35:37.587Z,21.26
2022-08-28T02:40:42.332Z,21.20
2022-08-28T02:45:45.400Z,21.17
2022-08-28T02:50:48.549Z,21.15
2022-08-28T02:55:52.972Z,21.06
2022-08-28T03:00:56.999Z,21.02
2022-08-28T03:06:02.455Z,21.04
2022-08-28T03:11:06.859Z,20.96
2022-08-28T03:16:09.940Z,20.94
2022-08-28T03:21:12.877Z,20.95
2022-08-28T03:26:18.738Z,20.92
2022-08-28T03:31:23.661Z,20.77
2022-08-28T03:36:27.584Z,20.80
2022-08-28T03:41:32.741Z,20.73
2022-08-28T03:46:36.312Z,20.64
2022-08-28T03:51:39.425Z,20.61
2022-08-28T03:56:43.711Z,20.57
2022-08-28T04:01:46.775Z,20.54
2022-08-28T04:06:49.786Z,20.55
2022-08-28T04:11:54.306Z,20.50
2022-08-28T04:17:01.316Z,20.48
2022-08-28T04:22:04.829Z,20.52
2022-08-28T04:27:09.115Z,20.47
2022-08-28T04:32:12.168Z,20.50
2022-08-28T04:37:16.279Z,20.49
2022-08-28T04:42:20.625Z,20.53
2022-08-28T04:47:23.751Z,20.47
2022-08-28T04:52:26.748Z,20.56
2022-08-28T04:57:34.516Z,20.52
2022-08-28T05:02:39.693Z,20.61
2022-08-28T05:07:42.852Z,20.65
2022-08-28T05:12:50.242Z,20.64
2022-08-28T05:17:53.177Z,20.68
2022-08-28T05:22:56.168Z,20.64
2022-08-28T05:28:00.433Z,20.66
2022-08-28T05:33:03.398Z,20.64
2022-08-28T05:38:06.904Z,20.70
2022-08-28T05:43:11.262Z,20.87
2022-08-28T05:48:16.371Z,20.95
2022-08-28T05:53:19.361Z,20.96
2022-08-28T05:58:32.443Z,21.04
2022-08-28T06:03:36.283Z,21.08
2022-08-28T06:08:56.170Z,21.16
2022-08-28T06:14:05.843Z,21.13
2022-08-28T06:19:09.499Z,21.13
2022-08-28T06:24:13.453Z,21.23
2022-08-28T06:29:18.496Z,21.27
2022-08-28T06:34:24.532Z,21.35
2022-08-28T06:39:27.534Z,21.52
2022-08-28T06:44:32.441Z,21.58
2022-08-28T06:49:35.715Z,21.65
2022-08-28T06:54:39.025Z,21.78
2022-08-28T06:59:44.829Z,21.93
2022-08-28T07:04:51.369Z,22.05
2022-08-28T07:09:54.453Z,22.18
2022-08-28T07:14:58.814Z,22.23
2022-08-28T07:20:01.874Z,22.34
2022-08-28T07:25:05.480Z,22.50
2022-08-28T07:30:13.219Z,22.60
2022-08-28T07:35:16.419Z,22.68
2022-08-28T07:40:22.308Z,22.78
2022-08-28T07:45:26.869Z,22.92
2022-08-28T07:50:30.039Z,23.03
2022-08-28T07:55:33.276Z,23.14
2022-08-28T08:00:37.741Z,23.25
2022-08-28T08:05:41.585Z,23.36
2022-08-28T08:10:44.560Z,23.47
2022-08-28T08:15:50.375Z,23.59
2022-08-28T08:20:53.436Z,23.70
2022-08-28T08:25:57.310Z,23.81
2022-08-28T08:31:05.868Z,23.91
2022-08-28T08:36:10.001Z,24.08
2022-08-28T08:41:15.983Z,24.23
2022-08-28T08:46:22.857Z,24.37
2022-08-28T08:51:31.178Z,24.62
2022-08-28T08:56:35.130Z,24.87
2022-08-28T09:01:43.267Z,24.94
2022-08-28T09:06:49.651Z,25.08
2022-08-28T09:11:57.047Z,25.31
2022-08-28T09:17:02.402Z,25.61
2022-08-28T09:22:05.690Z,25.86
2022-08-28T09:27:14.160Z,26.11
2022-08-28T09:32:23.557Z,26.26
2022-08-28T09:37:27.616Z,26.59
2022-08-28T09:42:52.468Z,26.73
2022-08-28T09:47:58.175Z,27.15
2022-08-28T09:53:14.536Z,30.93
2022-08-28T09:58:18.018Z,32.22
2022-08-28T10:03:24.823Z,30.30
2022-08-28T10:08:32.574Z,29.96
2022-08-28T10:13:37.415Z,29.96
2022-08-28T10:18:47.295Z,30.00
2022-08-28T10:23:58.815Z,30.17
2022-08-28T10:29:07.936Z,30.18
2022-08-28T10:34:22.856Z,30.09
2022-08-28T10:39:31.013Z,30.33
2022-08-28T10:44:39.895Z,30.55
2022-08-28T10:49:46.298Z,30.90
2022-08-28T10:54:51.726Z,31.09
2022-08-28T10:59:55.039Z,31.13
2022-08-28T11:04:59.628Z,31.26
2022-08-28T11:10:17.155Z,31.52
2022-08-28T11:15:38.744Z,32.05
2022-08-28T11:20:44.467Z,32.37
2022-08-28T11:25:51.072Z,32.37
2022-08-28T11:31:10.072Z,32.67
2022-08-28T11:36:34.195Z,32.86
2022-08-28T11:41:39.463Z,32.86
2022-08-28T11:46:43.556Z,32.53
2022-08-28T11:51:54.592Z,32.02
2022-08-28T11:57:06.208Z,31.60
2022-08-28T12:02:28.158Z,31.45
2022-08-28T12:07:35.399Z,31.40
2022-08-28T12:12:53.663Z,31.73
2022-08-28T12:17:57.811Z,32.45
2022-08-28T12:23:02.113Z,32.70
2022-08-28T12:28:16.032Z,32.72
2022-08-28T12:33:24.202Z,33.23
2022-08-28T12:38:28.676Z,33.63
2022-08-28T12:43:40.921Z,34.04
2022-08-28T12:48:50.574Z,35.64
2022-08-28T12:53:55.262Z,36.99
2022-08-28T12:59:19.650Z,37.43
2022-08-28T13:04:34.428Z,38.02
2022-08-28T13:09:37.836Z,38.03
2022-08-28T13:14:43.869Z,37.37
2022-08-28T13:19:46.830Z,36.55
2022-08-28T13:24:49.828Z,36.07
2022-08-28T13:30:03.929Z,35.63
2022-08-28T13:35:13.635Z,35.02
2022-08-28T13:40:53.482Z,33.39
2022-08-28T13:45:45.253Z,33.30
2022-08-28T13:50:50.231Z,33.32
2022-08-28T13:55:54.694Z,33.19
2022-08-28T14:00:59.303Z,33.15
2022-08-28T14:06:02.669Z,33.11
2022-08-28T14:11:07.375Z,33.05
2022-08-28T14:16:14.015Z,32.93
2022-08-28T14:21:19.751Z,32.84
2022-08-28T14:26:22.930Z,32.46
2022-08-28T14:31:27.454Z,31.93
2022-08-28T14:36:31.280Z,31.78
2022-08-28T14:41:34.656Z,31.48
2022-08-28T14:46:43.566Z,31.26
2022-08-28T14:51:47.326Z,31.36
2022-08-28T14:56:50.373Z,31.42
2022-08-28T15:01:55.409Z,31.30
2022-08-28T15:06:59.974Z,30.98
2022-08-28T15:12:03.180Z,30.52
2022-08-28T15:17:08.075Z,30.15
2022-08-28T15:22:11.220Z,29.88
2022-08-28T15:27:14.350Z,29.63
2022-08-28T15:32:18.741Z,29.44
2022-08-28T15:37:21.789Z,29.29
2022-08-28T15:42:24.841Z,29.20
2022-08-28T15:47:29.385Z,29.11
2022-08-28T15:52:32.528Z,29.10
2022-08-28T15:57:35.675Z,29.06
2022-08-28T16:02:40.239Z,29.01
2022-08-28T16:07:43.606Z,28.93
2022-08-28T16:12:47.985Z,28.81
2022-08-28T16:18:00.259Z,28.72
2022-08-28T16:23:03.348Z,28.61
2022-08-28T16:28:06.961Z,28.49
2022-08-28T16:33:11.510Z,28.36
2022-08-28T16:38:14.920Z,28.23
2022-08-28T16:43:18.071Z,28.11
2022-08-28T16:48:22.492Z,27.99
2022-08-28T16:53:27.344Z,27.95
2022-08-28T16:58:32.142Z,27.84
2022-08-28T17:03:36.727Z,27.75
2022-08-28T17:08:39.929Z,27.72
2022-08-28T17:13:42.981Z,27.71
2022-08-28T17:18:48.234Z,27.65
2022-08-28T17:23:55.409Z,27.59
2022-08-28T17:28:58.480Z,27.53
2022-08-28T17:34:02.907Z,27.51
2022-08-28T17:39:08.194Z,27.51
2022-08-28T17:44:11.375Z,27.35
2022-08-28T17:49:15.802Z,26.98
2022-08-28T17:54:21.594Z,26.74
2022-08-28T17:59:25.394Z,26.45
2022-08-28T18:04:29.917Z,25.97
2022-08-28T18:09:32.915Z,25.77
2022-08-28T18:14:35.897Z,25.75
2022-08-28T18:19:41.242Z,25.51
2022-08-28T18:24:44.307Z,25.55
2022-08-28T18:29:47.343Z,25.53
2022-08-28T18:34:51.870Z,25.46
2022-08-28T18:39:54.922Z,25.36
2022-08-28T18:44:59.728Z,25.26
2022-08-28T18:50:04.218Z,25.13
2022-08-28T18:55:09.579Z,24.92
2022-08-28T19:00:13.534Z,24.64
2022-08-28T19:05:18.056Z,24.60
2022-08-28T19:10:32.534Z,24.57
2022-08-28T19:15:37.157Z,24.47
2022-08-28T19:20:41.520Z,24.62
2022-08-28T19:25:44.591Z,24.56
2022-08-28T19:30:48.328Z,24.56
2022-08-28T19:35:53.341Z,24.51
2022-08-28T19:40:56.681Z,24.56
2022-08-28T19:46:00.509Z,24.56
2022-08-28T19:51:06.059Z,24.60
2022-08-28T19:56:19.053Z,24.54
2022-08-28T20:01:22.143Z,24.50
2022-08-28T20:06:26.735Z,24.37
2022-08-28T20:11:30.082Z,24.30
2022-08-28T20:16:35.187Z,24.32
2022-08-28T20:21:40.739Z,24.32
2022-08-28T20:26:43.756Z,24.23
2022-08-28T20:31:47.982Z,24.24
2022-08-28T20:36:52.649Z,24.14
2022-08-28T20:41:56.181Z,24.10
2022-08-28T20:46:59.451Z,24.09
2022-08-28T20:52:04.686Z,24.02
2022-08-28T20:57:08.823Z,24.02
2022-08-28T21:02:13.420Z,23.99
2022-08-28T21:07:19.097Z,23.95
2022-08-28T21:12:22.705Z,24.10
2022-08-28T21:17:29.579Z,24.12
2022-08-28T21:22:35.914Z,24.06
2022-08-28T21:27:39.735Z,23.98
2022-08-28T21:32:42.832Z,23.91
2022-08-28T21:37:47.596Z,23.80
2022-08-28T21:42:50.631Z,23.79
2022-08-28T21:47:53.658Z,23.79
2022-08-28T21:52:58.303Z,23.89
2022-08-28T21:58:01.360Z,23.90
2022-08-28T22:03:04.417Z,23.85
2022-08-28T22:08:08.739Z,23.91
2022-08-28T22:13:12.321Z,23.96
2022-08-28T22:18:16.716Z,23.91
2022-08-28T22:23:21.399Z,23.82
2022-08-28T22:28:24.470Z,23.71
2022-08-28T22:33:27.440Z,23.55
2022-08-28T22:38:31.879Z,23.56
2022-08-28T22:43:35.135Z,23.38
2022-08-28T22:48:38.150Z,23.33
2022-08-28T22:53:43.344Z,23.46
2022-08-28T22:58:46.488Z,23.36
2022-08-28T23:03:49.811Z,23.34
2022-08-28T23:08:54.206Z,23.35
2022-08-28T23:19:09.047Z,23.24
2022-08-28T23:24:14.267Z,22.89
2022-08-28T23:29:17.224Z,22.72
2022-08-28T23:34:20.556Z,22.76
2022-08-28T23:39:24.995Z,22.59
2022-08-28T23:44:30.858Z,22.65
2022-08-28T23:49:34.185Z,22.84
2022-08-28T23:54:47.500Z,22.80
2022-08-28T23:59:50.440Z,22.78
